Welcome to Northern Hawkes Bay. New Zealand.
PWS Header
      nz Flag



Hit Counter


W3C Valid W3C Valid logo


    Wairoa

Select any of the Stations below to visit their websites.










Historic Data from Weather Underground
Select the location of interest below. Wairoa is the default. Please have patience, this Data is slow to load in.
Northern Hawkes Bay Historical Data
Daily Summary for August 9, 2017 Units:  Metric    English   Both
« Previous Day
Next Day »
Daily Weekly Monthly Yearly Custom
  High: Low: Average:
Temperature: 18.4 °C 12.1 °C 15.2 °C
Dew Point: 12.8 °C 8.8 °C 11.1 °C
Humidity: 97% 62% 77%
Wind Speed: 14.8km/h 0.0km/h 4.5km/h
Wind Gust: 29.4km/h - -
Wind- - ESE
Pressure: 1016.1 hPa 1001.6 hPa -
Precipitation: 0.5 mm    
Historical Graphs
 
 
Tabular Data for August 9, 2017
Time Temperature Dew Point Pressure Wind Wind Speed Wind Gust Humidity Rainfall Rate (Hourly) solar
00:04 15.6 °C 9.5 °C 1015.8 hPa North 12.2 km/h 15.8 km/h 67% 0.0 mm 0 W/m2
00:09 15.8 °C 9.4 °C 1015.8 hPa North 8.7 km/h 17.2 km/h 66% 0.0 mm 0 W/m2
00:14 15.7 °C 9.2 °C 1016.1 hPa NNE 11.1 km/h 21.9 km/h 65% 0.0 mm 0 W/m2
00:19 15.9 °C 9.1 °C 1015.8 hPa North 11.1 km/h 21.9 km/h 64% 0.0 mm 0 W/m2
00:24 15.9 °C 9.1 °C 1015.5 hPa North 12.2 km/h 18.3 km/h 64% 0.0 mm 0 W/m2
00:29 15.9 °C 9.1 °C 1015.5 hPa North 3.5 km/h 19.5 km/h 64% 0.0 mm 0 W/m2
00:34 15.7 °C 9.2 °C 1015.5 hPa NNE 3.5 km/h 19.5 km/h 65% 0.0 mm 0 W/m2
00:39 15.5 °C 9.2 °C 1015.5 hPa NNE 3.5 km/h 12.2 km/h 66% 0.0 mm 0 W/m2
00:44 15.3 °C 9.2 °C 1015.5 hPa NNE 5.0 km/h 7.2 km/h 67% 0.0 mm 0 W/m2
00:49 15.3 °C 9.2 °C 1015.5 hPa NNE 3.5 km/h 8.7 km/h 67% 0.0 mm 0 W/m2
00:54 15.2 °C 9.1 °C 1015.5 hPa NNE 3.5 km/h 9.7 km/h 67% 0.0 mm 0 W/m2
00:59 15.2 °C 9.1 °C 1015.1 hPa NNE 3.5 km/h 12.2 km/h 67% 0.0 mm 0 W/m2
01:04 15.1 °C 9.0 °C 1015.1 hPa NNE 3.5 km/h 12.2 km/h 67% 0.0 mm 0 W/m2
01:09 15.0 °C 8.9 °C 1014.8 hPa NNE 2.6 km/h 7.2 km/h 67% 0.0 mm 0 W/m2
01:14 15.1 °C 9.0 °C 1014.8 hPa NNE 3.5 km/h 11.1 km/h 67% 0.0 mm 0 W/m2
01:19 15.0 °C 8.9 °C 1014.4 hPa NNE 5.0 km/h 12.2 km/h 67% 0.0 mm 0 W/m2
01:24 15.1 °C 9.0 °C 1014.8 hPa North 6.1 km/h 13.4 km/h 67% 0.0 mm 0 W/m2
01:29 15.2 °C 9.1 °C 1014.8 hPa North 6.1 km/h 14.8 km/h 67% 0.0 mm 0 W/m2
01:34 15.2 °C 8.9 °C 1014.8 hPa North 2.6 km/h 14.8 km/h 66% 0.0 mm 0 W/m2
01:39 15.2 °C 8.9 °C 1014.8 hPa North 6.1 km/h 11.1 km/h 66% 0.0 mm 0 W/m2
01:44 15.2 °C 8.9 °C 1014.4 hPa North 3.5 km/h 11.1 km/h 66% 0.0 mm 0 W/m2
01:49 15.2 °C 8.9 °C 1014.1 hPa NNE 2.6 km/h 11.1 km/h 66% 0.0 mm 0 W/m2
01:54 15.1 °C 8.8 °C 1014.1 hPa NNE 3.5 km/h 11.1 km/h 66% 0.0 mm 0 W/m2
01:59 15.0 °C 8.9 °C 1014.1 hPa NNE 2.6 km/h 11.1 km/h 67% 0.0 mm 0 W/m2
02:04 15.0 °C 8.9 °C 1014.1 hPa NNE 2.6 km/h 11.1 km/h 67% 0.0 mm 0 W/m2
02:09 15.0 °C 9.2 °C 1014.1 hPa NE 1.1 km/h 8.7 km/h 68% 0.0 mm 0 W/m2
02:14 14.9 °C 9.3 °C 1013.8 hPa NE 2.6 km/h 8.7 km/h 69% 0.0 mm 0 W/m2
02:19 15.0 °C 9.2 °C 1013.8 hPa NNE 3.5 km/h 7.2 km/h 68% 0.0 mm 0 W/m2
02:24 15.0 °C 9.2 °C 1013.8 hPa NNE 3.5 km/h 7.2 km/h 68% 0.0 mm 0 W/m2
02:29 15.0 °C 9.2 °C 1013.4 hPa NE 3.5 km/h 7.2 km/h 68% 0.0 mm 0 W/m2
02:34 15.0 °C 9.2 °C 1013.4 hPa NE 5.0 km/h 7.2 km/h 68% 0.0 mm 0 W/m2
02:39 14.9 °C 9.3 °C 1013.4 hPa ENE 2.6 km/h 7.2 km/h 69% 0.0 mm 0 W/m2
02:44 14.9 °C 9.5 °C 1013.4 hPa ENE 6.1 km/h 8.7 km/h 70% 0.0 mm 0 W/m2
02:49 15.0 °C 9.4 °C 1013.4 hPa ENE 1.1 km/h 8.7 km/h 69% 0.0 mm 0 W/m2
02:54 14.9 °C 9.5 °C 1013.4 hPa East 3.5 km/h 8.7 km/h 70% 0.0 mm 0 W/m2
03:00 14.6 °C 9.2 °C 1013.1 hPa Calm   5.0 km/h 70% 0.0 mm 0 W/m2
03:05 14.3 °C 9.1 °C 1013.1 hPa WNW 3.5 km/h 6.1 km/h 71% 0.0 mm 0 W/m2
03:10 14.0 °C 9.1 °C 1013.1 hPa Calm   6.1 km/h 72% 0.0 mm 0 W/m2
03:15 13.9 °C 9.6 °C 1013.1 hPa WSW 2.6 km/h 6.1 km/h 75% 0.0 mm 0 W/m2
03:20 13.6 °C 9.3 °C 1013.1 hPa South 2.6 km/h 6.1 km/h 75% 0.0 mm 0 W/m2
03:25 13.5 °C 9.2 °C 1013.1 hPa SE 1.1 km/h 6.1 km/h 75% 0.0 mm 0 W/m2
03:30 13.4 °C 9.3 °C 1013.1 hPa SE 1.1 km/h 3.5 km/h 76% 0.0 mm 0 W/m2
03:35 13.4 °C 9.3 °C 1012.8 hPa Calm   3.5 km/h 76% 0.0 mm 0 W/m2
03:40 13.3 °C 9.2 °C 1012.8 hPa SSE 1.1 km/h 3.5 km/h 76% 0.0 mm 0 W/m2
03:45 13.3 °C 9.2 °C 1012.4 hPa SSW 2.6 km/h 3.5 km/h 76% 0.0 mm 0 W/m2
03:50 13.0 °C 9.1 °C 1012.8 hPa Calm   6.1 km/h 77% 0.0 mm 0 W/m2
03:55 13.0 °C 9.3 °C 1012.4 hPa SW 2.6 km/h 6.1 km/h 78% 0.0 mm 0 W/m2
04:00 13.1 °C 9.2 °C 1012.4 hPa Calm   5.0 km/h 77% 0.0 mm 0 W/m2
04:05 13.0 °C 9.1 °C 1012.4 hPa East 1.1 km/h 3.5 km/h 77% 0.0 mm 0 W/m2
04:10 12.9 °C 9.3 °C 1012.4 hPa SSE 2.6 km/h 6.1 km/h 79% 0.0 mm 0 W/m2
04:16 12.9 °C 9.3 °C 1012.4 hPa Calm   6.1 km/h 79% 0.0 mm 0 W/m2
04:21 12.7 °C 9.2 °C 1012.4 hPa Calm   3.5 km/h 79% 0.0 mm 0 W/m2
04:26 12.7 °C 9.3 °C 1012.4 hPa Calm   3.5 km/h 80% 0.0 mm 0 W/m2
04:31 12.6 °C 9.4 °C 1012.4 hPa NW 1.1 km/h 5.0 km/h 81% 0.0 mm 0 W/m2
04:36 12.3 °C 9.1 °C 1012.4 hPa NNW 5.0 km/h 6.1 km/h 81% 0.0 mm 0 W/m2
04:41 12.2 °C 9.2 °C 1012.4 hPa NNW 1.1 km/h 6.1 km/h 82% 0.0 mm 0 W/m2
04:46 12.1 °C 9.1 °C 1012.1 hPa Calm   6.1 km/h 82% 0.0 mm 0 W/m2
04:51 12.1 °C 9.1 °C 1012.4 hPa Calm   5.0 km/h 82% 0.0 mm 0 W/m2
04:56 12.4 °C 9.4 °C 1012.1 hPa North 1.1 km/h 6.1 km/h 82% 0.0 mm 0 W/m2
05:01 12.7 °C 9.7 °C 1012.1 hPa Calm   6.1 km/h 82% 0.0 mm 0 W/m2
05:06 12.7 °C 9.5 °C 1012.1 hPa SW 2.6 km/h 5.0 km/h 81% 0.0 mm 0 W/m2
05:11 12.7 °C 9.5 °C 1012.1 hPa SSE 2.6 km/h 5.0 km/h 81% 0.0 mm 0 W/m2
05:16 13.0 °C 9.6 °C 1012.4 hPa Calm   5.0 km/h 80% 0.0 mm 0 W/m2
05:21 13.1 °C 9.6 °C 1012.4 hPa Calm   5.0 km/h 79% 0.0 mm 0 W/m2
05:26 13.2 °C 9.4 °C 1012.4 hPa Calm   1.1 km/h 78% 0.0 mm 0 W/m2
05:31 13.3 °C 9.6 °C 1012.4 hPa Calm     78% 0.0 mm 0 W/m2
05:36 13.3 °C 9.6 °C 1012.4 hPa NW 2.6 km/h 3.5 km/h 78% 0.0 mm 0 W/m2
05:41 13.2 °C 9.4 °C 1012.4 hPa Calm   3.5 km/h 78% 0.0 mm 0 W/m2
05:46 13.1 °C 9.3 °C 1012.1 hPa Calm   3.5 km/h 78% 0.0 mm 0 W/m2
05:51 12.9 °C 9.6 °C 1012.4 hPa WNW 1.1 km/h 5.0 km/h 80% 0.0 mm 0 W/m2
05:56 12.8 °C 9.6 °C 1012.4 hPa West 3.5 km/h 6.1 km/h 81% 0.0 mm 0 W/m2
06:01 13.1 °C 9.9 °C 1012.4 hPa WSW 1.1 km/h 6.1 km/h 81% 0.0 mm 0 W/m2
06:06 13.2 °C 9.8 °C 1012.8 hPa West 3.5 km/h 6.1 km/h 80% 0.0 mm 0 W/m2
06:11 13.0 °C 9.8 °C 1012.4 hPa NNW 3.5 km/h 6.1 km/h 81% 0.0 mm 0 W/m2
06:16 13.0 °C 10.0 °C 1012.4 hPa North 5.0 km/h 8.7 km/h 82% 0.0 mm 0 W/m2
06:32 13.4 °C 10.0 °C 1012.4 hPa Calm   3.5 km/h 80% 0.3 mm 0 W/m2
06:37 13.2 °C 10.0 °C 1012.4 hPa Calm   5.0 km/h 81% 0.3 mm 0 W/m2
06:42 13.0 °C 10.0 °C 1012.4 hPa Calm   5.0 km/h 82% 0.3 mm 0 W/m2
06:47 12.9 °C 10.1 °C 1012.4 hPa NE 1.1 km/h 3.5 km/h 83% 0.3 mm 0 W/m2
06:52 13.1 °C 10.3 °C 1012.8 hPa NNE 2.6 km/h 5.0 km/h 83% 0.3 mm 0 W/m2
06:57 13.1 °C 10.4 °C 1012.8 hPa West 3.5 km/h 5.0 km/h 84% 0.3 mm 0 W/m2
07:02 12.9 °C 10.3 °C 1012.4 hPa SW 3.5 km/h 6.1 km/h 84% 0.3 mm 0 W/m2
07:07 12.7 °C 10.2 °C 1012.4 hPa SSW 2.6 km/h 6.1 km/h 85% 0.3 mm 0 W/m2
07:12 12.6 °C 10.3 °C 1012.4 hPa Calm   5.0 km/h 86% 0.3 mm 0 W/m2
07:17 12.4 °C 10.1 °C 1012.4 hPa Calm   3.5 km/h 86% 0.3 mm 0 W/m2
07:22 12.3 °C 10.2 °C 1012.4 hPa NE 1.1 km/h 3.5 km/h 87% 0.3 mm 0 W/m2
07:27 12.4 °C 10.4 °C 1012.4 hPa NNE 3.5 km/h 5.0 km/h 88% 0.3 mm 0 W/m2
07:32 12.6 °C 10.7 °C 1012.8 hPa NNW 1.1 km/h 5.0 km/h 88% 0.0 mm 0 W/m2
07:37 12.7 °C 10.8 °C 1012.8 hPa NW 1.1 km/h 5.0 km/h 88% 0.0 mm 1 W/m2
07:43 12.9 °C 10.8 °C 1012.8 hPa West 1.1 km/h 5.0 km/h 87% 0.0 mm 2 W/m2
07:48 13.1 °C 10.8 °C 1012.8 hPa SW 1.1 km/h 5.0 km/h 86% 0.0 mm 3 W/m2
07:53 13.2 °C 10.7 °C 1012.4 hPa South 3.5 km/h 5.0 km/h 85% 0.0 mm 3 W/m2
07:58 13.4 °C 10.8 °C 1012.8 hPa South 5.0 km/h 6.1 km/h 84% 0.0 mm 5 W/m2
08:03 13.9 °C 10.7 °C 1012.4 hPa SSW 1.1 km/h 11.1 km/h 81% 0.0 mm 7 W/m2
08:08 14.3 °C 10.7 °C 1012.1 hPa SSW 1.1 km/h 11.1 km/h 79% 0.0 mm 10 W/m2
08:13 14.3 °C 10.5 °C 1012.4 hPa WNW 2.6 km/h 3.5 km/h 78% 0.0 mm 12 W/m2
08:18 14.3 °C 10.3 °C 1012.1 hPa South 2.6 km/h 6.1 km/h 77% 0.0 mm 13 W/m2
08:24 14.3 °C 10.3 °C 1012.1 hPa SSE 3.5 km/h 8.7 km/h 77% 0.0 mm 13 W/m2
08:29 13.9 °C 10.3 °C 1012.1 hPa SE 1.1 km/h 8.7 km/h 79% 0.0 mm 13 W/m2
08:34 13.8 °C 10.4 °C 1012.4 hPa Calm   6.1 km/h 80% 0.0 mm 13 W/m2
08:39 13.6 °C 10.4 °C 1012.1 hPa East 2.6 km/h 6.1 km/h 81% 0.0 mm 16 W/m2
08:44 13.6 °C 10.6 °C 1012.1 hPa Calm   3.5 km/h 82% 0.0 mm 20 W/m2
08:46 13.6 °C 10.6 °C 1012.1 hPa Calm   3.5 km/h 82% 0.0 mm 21 W/m2
08:51 13.5 °C 10.5 °C 1012.1 hPa ESE 2.6 km/h 5.0 km/h 82% 0.0 mm 26 W/m2
08:56 13.6 °C 10.8 °C 1012.1 hPa SE 1.1 km/h 5.0 km/h 83% 0.0 mm 32 W/m2
09:01 13.6 °C 10.9 °C 1012.1 hPa SE 3.5 km/h 7.2 km/h 84% 0.0 mm 29 W/m2
09:06 13.9 °C 11.1 °C 1012.1 hPa ESE 2.6 km/h 8.7 km/h 83% 0.0 mm 28 W/m2
09:11 14.0 °C 11.0 °C 1011.7 hPa SE 5.0 km/h 8.7 km/h 82% 0.0 mm 26 W/m2
09:16 14.1 °C 10.9 °C 1011.7 hPa SSE 2.6 km/h 9.7 km/h 81% 0.0 mm 29 W/m2
09:21 14.1 °C 11.1 °C 1012.1 hPa SE 2.6 km/h 9.7 km/h 82% 0.0 mm 28 W/m2
09:26 14.0 °C 11.0 °C 1011.7 hPa ESE 1.1 km/h 5.0 km/h 82% 0.0 mm 29 W/m2
09:31 14.1 °C 11.1 °C 1011.7 hPa SE 1.1 km/h 5.0 km/h 82% 0.0 mm 26 W/m2
09:36 14.2 °C 11.2 °C 1011.4 hPa ESE 2.6 km/h 3.5 km/h 82% 0.0 mm 21 W/m2
09:41 14.3 °C 11.1 °C 1011.4 hPa East 3.5 km/h 5.0 km/h 81% 0.0 mm 18 W/m2
09:46 14.4 °C 11.0 °C 1011.4 hPa Calm   5.0 km/h 80% 0.0 mm 20 W/m2
09:51 14.4 °C 11.0 °C 1011.4 hPa Calm   5.0 km/h 80% 0.0 mm 23 W/m2
09:56 14.4 °C 11.2 °C 1011.4 hPa Calm   1.1 km/h 81% 0.0 mm 30 W/m2
10:01 14.2 °C 11.2 °C 1011.4 hPa NNW 3.5 km/h 5.0 km/h 82% 0.0 mm 48 W/m2
10:06 14.3 °C 11.4 °C 1011.7 hPa NNW 5.0 km/h 6.1 km/h 83% 0.0 mm 68 W/m2
10:11 14.2 °C 11.6 °C 1011.7 hPa NW 2.6 km/h 6.1 km/h 84% 0.0 mm 77 W/m2
10:16 14.1 °C 11.4 °C 1011.7 hPa WNW 1.1 km/h 6.1 km/h 84% 0.0 mm 80 W/m2
10:21 14.2 °C 11.6 °C 1011.4 hPa Calm   5.0 km/h 84% 0.0 mm 89 W/m2
10:26 14.4 °C 11.7 °C 1011.4 hPa ENE 2.6 km/h 5.0 km/h 84% 0.0 mm 96 W/m2
10:31 14.5 °C 11.8 °C 1011.4 hPa ENE 1.1 km/h 5.0 km/h 84% 0.0 mm 117 W/m2
10:36 14.8 °C 12.1 °C 1011.7 hPa Calm   5.0 km/h 84% 0.0 mm 91 W/m2
10:41 15.1 °C 12.2 °C 1011.4 hPa North 2.6 km/h 5.0 km/h 83% 0.0 mm 142 W/m2
10:46 15.6 °C 12.6 °C 1010.7 hPa NNE 3.5 km/h 8.7 km/h 82% 0.0 mm 170 W/m2
10:51 16.6 °C 12.8 °C 1010.7 hPa NNE 7.2 km/h 12.2 km/h 78% 0.0 mm 192 W/m2
10:56 17.0 °C 12.3 °C 1010.7 hPa NNE 5.0 km/h 12.2 km/h 74% 0.0 mm 163 W/m2
11:01 17.1 °C 12.4 °C 1010.7 hPa NNE 6.1 km/h 13.4 km/h 74% 0.0 mm 110 W/m2
11:06 16.9 °C 12.4 °C 1010.7 hPa NNE 3.5 km/h 13.4 km/h 75% 0.0 mm 130 W/m2
11:11 16.9 °C 12.7 °C 1010.4 hPa NNE 3.5 km/h 15.8 km/h 76% 0.0 mm 165 W/m2
11:16 17.3 °C 12.8 °C 1010.4 hPa NE 7.2 km/h 15.8 km/h 75% 0.0 mm 205 W/m2
11:21 17.5 °C 12.8 °C 1010.0 hPa NE 5.0 km/h 15.8 km/h 74% 0.0 mm 159 W/m2
11:26 17.5 °C 12.6 °C 1010.0 hPa NE 8.7 km/h 19.5 km/h 73% 0.0 mm 175 W/m2
11:31 17.4 °C 12.5 °C 1010.0 hPa NNE 8.7 km/h 20.9 km/h 73% 0.0 mm 148 W/m2
11:36 17.3 °C 12.4 °C 1010.0 hPa NNE 13.4 km/h 20.9 km/h 73% 0.0 mm 117 W/m2
11:41 17.2 °C 12.3 °C 1010.0 hPa NE 8.7 km/h 19.5 km/h 73% 0.0 mm 111 W/m2
11:46 17.1 °C 12.2 °C 1009.7 hPa NE 7.2 km/h 19.5 km/h 73% 0.0 mm 95 W/m2
11:51 17.2 °C 12.3 °C 1009.7 hPa NE 6.1 km/h 20.9 km/h 73% 0.0 mm 112 W/m2
11:56 17.3 °C 12.4 °C 1009.4 hPa NE 7.2 km/h 20.9 km/h 73% 0.0 mm 133 W/m2
12:01 17.4 °C 12.3 °C 1009.4 hPa NE 13.4 km/h 15.8 km/h 72% 0.0 mm 131 W/m2
12:06 17.5 °C 12.4 °C 1009.4 hPa NE 11.1 km/h 18.3 km/h 72% 0.0 mm 146 W/m2
12:11 17.5 °C 12.2 °C 1009.4 hPa ENE 9.7 km/h 18.3 km/h 71% 0.0 mm 102 W/m2
12:16 17.5 °C 12.2 °C 1008.7 hPa ENE 9.7 km/h 19.5 km/h 71% 0.0 mm 55 W/m2
12:21 17.3 °C 11.8 °C 1008.7 hPa ENE 14.8 km/h 19.5 km/h 70% 0.0 mm 59 W/m2
12:26 17.2 °C 11.9 °C 1008.4 hPa ENE 5.0 km/h 19.5 km/h 71% 0.0 mm 98 W/m2
12:31 17.3 °C 12.0 °C 1008.4 hPa ENE 9.7 km/h 19.5 km/h 71% 0.0 mm 98 W/m2
12:36 17.4 °C 11.9 °C 1008.4 hPa ENE 9.7 km/h 14.8 km/h 70% 0.0 mm 80 W/m2
12:41 17.4 °C 12.1 °C 1008.0 hPa NE 3.5 km/h 13.4 km/h 71% 0.0 mm 74 W/m2
12:46 17.4 °C 12.1 °C 1008.0 hPa NNE 5.0 km/h 12.2 km/h 71% 0.0 mm 92 W/m2
12:51 17.4 °C 11.7 °C 1007.7 hPa NE 8.7 km/h 12.2 km/h 69% 0.0 mm 116 W/m2
12:56 17.5 °C 12.0 °C 1007.3 hPa NE 5.0 km/h 12.2 km/h 70% 0.0 mm 158 W/m2
13:01 17.8 °C 12.3 °C 1007.3 hPa NE 5.0 km/h 13.4 km/h 70% 0.0 mm 160 W/m2
13:06 18.0 °C 11.8 °C 1007.3 hPa NNE 7.2 km/h 17.2 km/h 67% 0.0 mm 168 W/m2
13:11 18.2 °C 12.0 °C 1007.0 hPa NNE 6.1 km/h 17.2 km/h 67% 0.0 mm 141 W/m2
13:16 18.1 °C 11.7 °C 1007.0 hPa NE 8.7 km/h 17.2 km/h 66% 0.0 mm 134 W/m2
13:21 18.0 °C 11.6 °C 1007.0 hPa NE 7.2 km/h 20.9 km/h 66% 0.0 mm 166 W/m2
13:26 18.2 °C 11.8 °C 1007.0 hPa NNE 6.1 km/h 20.9 km/h 66% 0.0 mm 150 W/m2
13:31 18.3 °C 11.8 °C 1006.7 hPa NNE 6.1 km/h 13.4 km/h 66% 0.0 mm 131 W/m2
13:36 18.3 °C 11.6 °C 1006.7 hPa NNE 3.5 km/h 13.4 km/h 65% 0.0 mm 121 W/m2
13:41 18.2 °C 11.5 °C 1006.7 hPa NNE 6.1 km/h 13.4 km/h 65% 0.0 mm 132 W/m2
13:46 18.1 °C 11.4 °C 1006.3 hPa NNE 6.1 km/h 13.4 km/h 65% 0.0 mm 144 W/m2
13:51 18.3 °C 11.6 °C 1006.3 hPa NNE 6.1 km/h 15.8 km/h 65% 0.0 mm 162 W/m2
13:56 18.3 °C 11.2 °C 1006.3 hPa North 8.7 km/h 17.2 km/h 63% 0.0 mm 138 W/m2
14:01 18.3 °C 11.4 °C 1006.3 hPa NNE 6.1 km/h 17.2 km/h 64% 0.0 mm 118 W/m2
14:06 18.3 °C 11.4 °C 1006.3 hPa NE 12.2 km/h 17.2 km/h 64% 0.0 mm 137 W/m2
14:11 18.4 °C 11.0 °C 1006.0 hPa NNE 3.5 km/h 20.9 km/h 62% 0.3 mm 123 W/m2
14:16 18.4 °C 11.5 °C 1006.0 hPa NNE 6.1 km/h 20.9 km/h 64% 0.3 mm 103 W/m2
14:21 18.2 °C 11.3 °C 1006.0 hPa NE 8.7 km/h 19.5 km/h 64% 0.3 mm 96 W/m2
14:27 18.0 °C 11.3 °C 1006.0 hPa NE 11.1 km/h 19.5 km/h 65% 0.3 mm 80 W/m2
14:32 17.8 °C 11.2 °C 1006.0 hPa NE 9.7 km/h 18.3 km/h 65% 0.3 mm 62 W/m2
14:37 17.7 °C 11.3 °C 1005.6 hPa NE 14.8 km/h 20.9 km/h 66% 0.3 mm 61 W/m2
14:42 17.6 °C 11.2 °C 1005.6 hPa NE 13.4 km/h 25.6 km/h 66% 0.3 mm 92 W/m2
14:47 17.6 °C 11.4 °C 1005.6 hPa NE 12.2 km/h 25.6 km/h 67% 0.3 mm 96 W/m2
14:52 17.7 °C 11.5 °C 1005.6 hPa ENE 8.7 km/h 23.3 km/h 67% 0.3 mm 100 W/m2
14:57 17.6 °C 11.6 °C 1005.6 hPa ENE 6.1 km/h 15.8 km/h 68% 0.3 mm 101 W/m2
15:02 17.7 °C 11.7 °C 1005.3 hPa ENE 7.2 km/h 15.8 km/h 68% 0.3 mm 99 W/m2
15:07 17.9 °C 11.9 °C 1005.3 hPa NE 12.2 km/h 19.5 km/h 68% 0.3 mm 102 W/m2
15:16 18.0 °C 11.8 °C 1005.3 hPa NNE 2.6 km/h 19.5 km/h 67% 0.0 mm 95 W/m2
15:22 18.0 °C 11.8 °C 1005.0 hPa NE 6.1 km/h 13.4 km/h 67% 0.0 mm 88 W/m2
15:24 18.1 °C 11.9 °C 1005.3 hPa NE 7.2 km/h 12.2 km/h 67% 0.0 mm 93 W/m2
15:28 18.0 °C 11.8 °C 1005.0 hPa NE 7.2 km/h 14.8 km/h 67% 0.0 mm 85 W/m2
15:33 17.9 °C 11.9 °C 1005.0 hPa NNE 13.4 km/h 18.3 km/h 68% 0.0 mm 82 W/m2
15:38 17.7 °C 11.7 °C 1004.6 hPa North 7.2 km/h 23.3 km/h 68% 0.0 mm 70 W/m2
15:43 17.7 °C 11.9 °C 1004.6 hPa NNE 9.7 km/h 23.3 km/h 69% 0.0 mm 60 W/m2
15:48 17.6 °C 11.8 °C 1004.6 hPa NNE 8.7 km/h 29.4 km/h 69% 0.0 mm 64 W/m2
15:53 17.6 °C 11.8 °C 1004.6 hPa NNE 5.0 km/h 29.4 km/h 69% 0.0 mm 53 W/m2
15:58 17.5 °C 12.0 °C 1004.3 hPa NNE 6.1 km/h 19.5 km/h 70% 0.0 mm 52 W/m2
16:02 17.5 °C 12.0 °C 1004.3 hPa NE 5.0 km/h 19.5 km/h 70% 0.0 mm 57 W/m2
16:07 17.6 °C 11.8 °C 1003.9 hPa NE 7.2 km/h 19.5 km/h 69% 0.0 mm 67 W/m2
16:12 17.6 °C 11.8 °C 1004.3 hPa NNE 11.1 km/h 17.2 km/h 69% 0.0 mm 47 W/m2
16:17 17.6 °C 11.6 °C 1003.9 hPa NNE 7.2 km/h 20.9 km/h 68% 0.0 mm 44 W/m2
16:22 17.7 °C 11.7 °C 1003.9 hPa NNE 7.2 km/h 20.9 km/h 68% 0.0 mm 32 W/m2
16:27 17.6 °C 11.6 °C 1003.9 hPa NE 11.1 km/h 27.0 km/h 68% 0.0 mm 47 W/m2
16:32 17.7 °C 11.7 °C 1003.9 hPa ENE 11.1 km/h 27.0 km/h 68% 0.0 mm 39 W/m2
16:37 17.8 °C 11.8 °C 1003.6 hPa NE 8.7 km/h 18.3 km/h 68% 0.0 mm 39 W/m2
16:42 17.8 °C 11.6 °C 1003.6 hPa NE 8.7 km/h 19.5 km/h 67% 0.0 mm 33 W/m2
16:47 17.7 °C 11.7 °C 1003.3 hPa NE 12.2 km/h 19.5 km/h 68% 0.0 mm 21 W/m2
16:52 17.6 °C 11.6 °C 1003.3 hPa NE 12.2 km/h 17.2 km/h 68% 0.0 mm 12 W/m2
16:57 17.6 °C 11.6 °C 1003.3 hPa ENE 5.0 km/h 20.9 km/h 68% 0.0 mm 10 W/m2
17:02 17.5 °C 11.8 °C 1002.9 hPa NE 8.7 km/h 20.9 km/h 69% 0.0 mm 4 W/m2
17:07 17.4 °C 11.7 °C 1002.9 hPa NE 3.5 km/h 17.2 km/h 69% 0.0 mm 5 W/m2
17:12 17.4 °C 11.7 °C 1002.9 hPa ENE 8.7 km/h 18.3 km/h 69% 0.0 mm 4 W/m2
17:17 17.3 °C 11.6 °C 1002.9 hPa NE 11.1 km/h 19.5 km/h 69% 0.0 mm 2 W/m2
17:22 17.4 °C 11.7 °C 1002.6 hPa NE 8.7 km/h 20.9 km/h 69% 0.0 mm 0 W/m2
17:27 17.4 °C 11.7 °C 1002.3 hPa NE 13.4 km/h 20.9 km/h 69% 0.0 mm 0 W/m2
17:32 17.4 °C 11.7 °C 1002.3 hPa NE 9.7 km/h 24.5 km/h 69% 0.0 mm 0 W/m2
17:37 17.3 °C 11.8 °C 1001.9 hPa NE 9.7 km/h 24.5 km/h 70% 0.0 mm 0 W/m2
17:42 17.2 °C 11.7 °C 1001.9 hPa NNE 14.8 km/h 27.0 km/h 70% 0.0 mm 0 W/m2
17:47 17.2 °C 11.9 °C 1002.3 hPa NE 8.7 km/h 27.0 km/h 71% 0.0 mm 0 W/m2
17:52 17.1 °C 11.8 °C 1002.3 hPa NNE 9.7 km/h 20.9 km/h 71% 0.0 mm 0 W/m2
17:57 17.0 °C 11.7 °C 1002.3 hPa NE 11.1 km/h 20.9 km/h 71% 0.0 mm 0 W/m2
18:02 16.9 °C 11.8 °C 1002.3 hPa ENE 8.7 km/h 15.8 km/h 72% 0.0 mm 0 W/m2
18:07 16.9 °C 12.1 °C 1001.9 hPa ENE 6.1 km/h 14.8 km/h 73% 0.0 mm 0 W/m2
18:12 16.9 °C 12.1 °C 1002.3 hPa ENE 7.2 km/h 14.8 km/h 73% 0.0 mm 0 W/m2
18:17 16.9 °C 12.1 °C 1002.3 hPa NE 8.7 km/h 14.8 km/h 73% 0.0 mm 0 W/m2
18:22 16.7 °C 11.8 °C 1001.9 hPa NE 5.0 km/h 13.4 km/h 73% 0.0 mm 0 W/m2
18:27 16.7 °C 11.8 °C 1001.9 hPa NNE 5.0 km/h 13.4 km/h 73% 0.0 mm 0 W/m2
18:32 16.7 °C 12.1 °C 1002.3 hPa NE 3.5 km/h 12.2 km/h 74% 0.0 mm 0 W/m2
18:37 16.7 °C 12.1 °C 1001.9 hPa NE 6.1 km/h 12.2 km/h 74% 0.0 mm 0 W/m2
18:42 16.7 °C 12.1 °C 1001.9 hPa NE 6.1 km/h 11.1 km/h 74% 0.0 mm 0 W/m2
18:47 16.7 °C 12.1 °C 1001.6 hPa NE 7.2 km/h 12.2 km/h 74% 0.0 mm 0 W/m2
18:52 16.7 °C 12.1 °C 1001.9 hPa NE 7.2 km/h 13.4 km/h 74% 0.0 mm 0 W/m2
18:57 16.7 °C 12.1 °C 1001.9 hPa NE 3.5 km/h 13.4 km/h 74% 0.0 mm 0 W/m2
19:02 16.7 °C 12.1 °C 1002.3 hPa North 2.6 km/h 12.2 km/h 74% 0.0 mm 0 W/m2
19:07 16.7 °C 12.1 °C 1002.3 hPa NW 3.5 km/h 6.1 km/h 74% 0.0 mm 0 W/m2
19:12 16.7 °C 12.1 °C 1002.3 hPa NW 2.6 km/h 6.1 km/h 74% 0.0 mm 0 W/m2
19:17 16.7 °C 12.1 °C 1002.6 hPa NNW 1.1 km/h 6.1 km/h 74% 0.0 mm 0 W/m2
19:22 16.7 °C 12.1 °C 1002.6 hPa North 2.6 km/h 5.0 km/h 74% 0.0 mm 0 W/m2
19:27 16.6 °C 12.2 °C 1002.6 hPa North 5.0 km/h 7.2 km/h 75% 0.0 mm 0 W/m2
19:32 16.7 °C 12.3 °C 1002.6 hPa North 6.1 km/h 13.4 km/h 75% 0.0 mm 0 W/m2
19:37 16.7 °C 12.3 °C 1002.6 hPa NNE 1.1 km/h 13.4 km/h 75% 0.0 mm 0 W/m2
19:42 16.7 °C 12.3 °C 1002.3 hPa NNE 2.6 km/h 13.4 km/h 75% 0.0 mm 0 W/m2
19:47 16.7 °C 12.3 °C 1002.3 hPa NNW 2.6 km/h 6.1 km/h 75% 0.0 mm 0 W/m2
19:52 16.5 °C 12.1 °C 1002.3 hPa WNW 1.1 km/h 5.0 km/h 75% 0.0 mm 0 W/m2
19:57 16.3 °C 12.1 °C 1001.9 hPa East 5.0 km/h 7.2 km/h 76% 0.0 mm 0 W/m2
20:02 15.8 °C 12.0 °C 1001.9 hPa East 2.6 km/h 8.7 km/h 78% 0.0 mm 0 W/m2
20:07 15.2 °C 11.6 °C 1001.9 hPa ESE 5.0 km/h 8.7 km/h 79% 0.0 mm 0 W/m2
20:12 14.7 °C 12.1 °C 1002.3 hPa SE 3.5 km/h 7.2 km/h 84% 0.0 mm 0 W/m2
20:17 14.4 °C 11.9 °C 1002.3 hPa SSE 2.6 km/h 7.2 km/h 85% 0.0 mm 0 W/m2
20:22 14.3 °C 12.2 °C 1002.6 hPa Calm   6.1 km/h 87% 0.0 mm 0 W/m2
20:27 14.1 °C 12.0 °C 1002.9 hPa South 2.6 km/h 6.1 km/h 87% 0.0 mm 0 W/m2
20:32 14.0 °C 11.9 °C 1002.9 hPa East 1.1 km/h 3.5 km/h 87% 0.0 mm 0 W/m2
20:37 13.9 °C 12.1 °C 1002.6 hPa ENE 1.1 km/h 3.5 km/h 89% 0.0 mm 0 W/m2
20:42 13.9 °C 12.1 °C 1002.6 hPa NE 2.6 km/h 5.0 km/h 89% 0.0 mm 0 W/m2
20:47 13.9 °C 12.3 °C 1001.9 hPa ENE 3.5 km/h 5.0 km/h 90% 0.0 mm 0 W/m2
20:52 14.1 °C 12.3 °C 1001.6 hPa ENE 3.5 km/h 6.1 km/h 89% 0.0 mm 0 W/m2
20:57 14.4 °C 12.6 °C 1001.6 hPa Calm   6.1 km/h 89% 0.0 mm 0 W/m2
21:02 14.3 °C 12.3 °C 1001.6 hPa SSE 5.0 km/h 7.2 km/h 88% 0.0 mm 0 W/m2
21:07 13.9 °C 12.1 °C 1001.6 hPa South 6.1 km/h 8.7 km/h 89% 0.0 mm 0 W/m2
21:12 13.7 °C 12.1 °C 1001.9 hPa SSW 3.5 km/h 8.7 km/h 90% 0.0 mm 0 W/m2
21:17 13.5 °C 12.1 °C 1002.6 hPa SSW 2.6 km/h 8.7 km/h 91% 0.0 mm 0 W/m2
21:22 13.4 °C 12.1 °C 1002.6 hPa South 1.1 km/h 7.2 km/h 92% 0.0 mm 0 W/m2
21:39 13.1 °C 12.0 °C 1001.9 hPa South 5.0 km/h 7.2 km/h 93% 0.0 mm 0 W/m2
21:44 13.0 °C 12.1 °C 1002.3 hPa SSW 9.7 km/h 13.4 km/h 94% 0.0 mm 0 W/m2
21:49 13.0 °C 12.2 °C 1001.9 hPa South 3.5 km/h 13.4 km/h 95% 0.0 mm 0 W/m2
21:54 12.9 °C 12.1 °C 1002.3 hPa South 1.1 km/h 13.4 km/h 95% 0.0 mm 0 W/m2
21:59 12.8 °C 12.0 °C 1001.9 hPa SSE 5.0 km/h 6.1 km/h 95% 0.0 mm 0 W/m2
22:04 12.8 °C 12.0 °C 1001.9 hPa SSE 6.1 km/h 9.7 km/h 95% 0.0 mm 0 W/m2
22:09 12.8 °C 12.2 °C 1001.9 hPa SSE 5.0 km/h 9.7 km/h 96% 0.0 mm 0 W/m2
22:14 12.8 °C 12.2 °C 1001.9 hPa SSE 5.0 km/h 9.7 km/h 96% 0.0 mm 0 W/m2
22:18 12.8 °C 12.2 °C 1001.9 hPa South 5.0 km/h 8.7 km/h 96% 0.0 mm 0 W/m2
22:23 12.8 °C 12.3 °C 1001.9 hPa SSE 2.6 km/h 7.2 km/h 97% 0.0 mm 0 W/m2
22:28 12.8 °C 12.3 °C 1001.9 hPa SSE 3.5 km/h 6.1 km/h 97% 0.0 mm 0 W/m2
22:33 12.9 °C 12.4 °C 1001.9 hPa SSE 3.5 km/h 7.2 km/h 97% 0.0 mm 0 W/m2
22:38 13.0 °C 12.6 °C 1002.3 hPa SSE 3.5 km/h 8.7 km/h 97% 0.0 mm 0 W/m2
22:43 13.0 °C 12.6 °C 1002.3 hPa SSE 2.6 km/h 8.7 km/h 97% 0.0 mm 0 W/m2
22:48 13.0 °C 12.6 °C 1001.9 hPa SSE 2.6 km/h 8.7 km/h 97% 0.0 mm 0 W/m2
22:53 12.9 °C 12.4 °C 1001.9 hPa SSE 3.5 km/h 5.0 km/h 97% 0.0 mm 0 W/m2
22:58 13.0 °C 12.6 °C 1002.3 hPa SSW 5.0 km/h 7.2 km/h 97% 0.0 mm 0 W/m2
23:03 12.9 °C 12.4 °C 1001.9 hPa SSW 5.0 km/h 7.2 km/h 97% 0.0 mm 0 W/m2
23:08 12.9 °C 12.4 °C 1001.9 hPa South 2.6 km/h 7.2 km/h 97% 0.0 mm 0 W/m2
23:13 12.9 °C 12.4 °C 1001.9 hPa South 3.5 km/h 7.2 km/h 97% 0.0 mm 0 W/m2
23:18 12.9 °C 12.4 °C 1001.9 hPa SSW 5.0 km/h 7.2 km/h 97% 0.0 mm 0 W/m2
23:23 12.8 °C 12.3 °C 1001.9 hPa SSW 6.1 km/h 9.7 km/h 97% 0.0 mm 0 W/m2
23:28 12.7 °C 12.2 °C 1001.9 hPa SSW 3.5 km/h 9.7 km/h 97% 0.0 mm 0 W/m2
23:33 12.5 °C 12.1 °C 1001.9 hPa SSW 2.6 km/h 8.7 km/h 97% 0.0 mm 0 W/m2
23:38 12.5 °C 12.1 °C 1001.9 hPa Calm   6.1 km/h 97% 0.0 mm 0 W/m2
23:43 12.6 °C 12.2 °C 1001.9 hPa Calm   3.5 km/h 97% 0.0 mm 0 W/m2
23:48 12.6 °C 12.2 °C 1001.9 hPa SE 1.1 km/h 5.0 km/h 97% 0.0 mm 0 W/m2
23:53 12.5 °C 12.1 °C 1001.9 hPa East 2.6 km/h 5.0 km/h 97% 0.0 mm 0 W/m2
23:58 12.5 °C 12.1 °C 1001.6 hPa Calm   3.5 km/h 97% 0.0 mm 0 W/m2
Northern Hawkes Bay. New Zealand Historic Data
Compliments of Weather Underground - 2 mb